sensor_id;sensor_type;location;lat;lon;timestamp;temperature;humidity
8420;DHT22;4247;48.550;8.822;2024-03-25T00:01:06;3.90;99.90
8420;DHT22;4247;48.550;8.822;2024-03-25T00:03:34;3.90;99.90
8420;DHT22;4247;48.550;8.822;2024-03-25T00:06:00;3.90;99.90
8420;DHT22;4247;48.550;8.822;2024-03-25T00:08:27;3.90;99.90
8420;DHT22;4247;48.550;8.822;2024-03-25T00:10:52;3.90;99.90
8420;DHT22;4247;48.550;8.822;2024-03-25T00:13:20;3.90;99.90
8420;DHT22;4247;48.550;8.822;2024-03-25T00:15:46;4.00;99.90
8420;DHT22;4247;48.550;8.822;2024-03-25T00:18:13;4.00;99.90
8420;DHT22;4247;48.550;8.822;2024-03-25T00:20:40;4.00;99.90
8420;DHT22;4247;48.550;8.822;2024-03-25T00:23:07;4.00;99.90
8420;DHT22;4247;48.550;8.822;2024-03-25T00:25:33;4.00;99.90
8420;DHT22;4247;48.550;8.822;2024-03-25T00:27:59;3.90;99.90
8420;DHT22;4247;48.550;8.822;2024-03-25T00:30:25;3.90;99.90
8420;DHT22;4247;48.550;8.822;2024-03-25T00:32:52;4.00;99.90
8420;DHT22;4247;48.550;8.822;2024-03-25T00:35:18;4.00;99.90
8420;DHT22;4247;48.550;8.822;2024-03-25T00:37:46;3.90;99.90
8420;DHT22;4247;48.550;8.822;2024-03-25T00:40:11;4.00;99.90
8420;DHT22;4247;48.550;8.822;2024-03-25T00:42:38;4.00;99.90
8420;DHT22;4247;48.550;8.822;2024-03-25T00:45:04;4.00;99.90
8420;DHT22;4247;48.550;8.822;2024-03-25T00:47:32;4.00;99.90
8420;DHT22;4247;48.550;8.822;2024-03-25T00:49:58;4.00;99.90
8420;DHT22;4247;48.550;8.822;2024-03-25T00:52:25;4.00;99.90
8420;DHT22;4247;48.550;8.822;2024-03-25T00:54:52;4.00;99.90
8420;DHT22;4247;48.550;8.822;2024-03-25T00:57:18;4.00;99.90
8420;DHT22;4247;48.550;8.822;2024-03-25T00:59:44;4.00;99.90
8420;DHT22;4247;48.550;8.822;2024-03-25T01:02:11;4.10;99.90
8420;DHT22;4247;48.550;8.822;2024-03-25T01:04:37;4.10;99.90
8420;DHT22;4247;48.550;8.822;2024-03-25T01:07:03;4.10;99.90
8420;DHT22;4247;48.550;8.822;2024-03-25T01:09:29;4.10;99.90
8420;DHT22;4247;48.550;8.822;2024-03-25T01:11:58;4.00;99.90
8420;DHT22;4247;48.550;8.822;2024-03-25T01:14:24;4.10;99.90
8420;DHT22;4247;48.550;8.822;2024-03-25T01:16:51;4.10;99.90
8420;DHT22;4247;48.550;8.822;2024-03-25T01:19:18;4.00;99.90
8420;DHT22;4247;48.550;8.822;2024-03-25T01:21:46;4.00;99.90
8420;DHT22;4247;48.550;8.822;2024-03-25T01:24:12;3.90;99.90
8420;DHT22;4247;48.550;8.822;2024-03-25T01:26:38;4.00;99.90
8420;DHT22;4247;48.550;8.822;2024-03-25T01:29:05;3.90;99.90
8420;DHT22;4247;48.550;8.822;2024-03-25T01:31:33;3.90;99.90
8420;DHT22;4247;48.550;8.822;2024-03-25T01:33:59;3.90;99.90
8420;DHT22;4247;48.550;8.822;2024-03-25T01:36:26;3.90;99.90
8420;DHT22;4247;48.550;8.822;2024-03-25T01:38:52;3.90;99.90
8420;DHT22;4247;48.550;8.822;2024-03-25T01:41:21;3.90;99.90
8420;DHT22;4247;48.550;8.822;2024-03-25T01:43:48;3.90;99.90
8420;DHT22;4247;48.550;8.822;2024-03-25T01:46:16;3.90;99.90
8420;DHT22;4247;48.550;8.822;2024-03-25T01:48:43;3.80;99.90
8420;DHT22;4247;48.550;8.822;2024-03-25T01:51:12;3.80;99.90
8420;DHT22;4247;48.550;8.822;2024-03-25T01:53:38;3.80;99.90
8420;DHT22;4247;48.550;8.822;2024-03-25T01:56:06;3.70;99.90
8420;DHT22;4247;48.550;8.822;2024-03-25T01:58:33;3.70;99.90
8420;DHT22;4247;48.550;8.822;2024-03-25T02:01:00;3.70;99.90
8420;DHT22;4247;48.550;8.822;2024-03-25T02:03:34;3.70;99.90
8420;DHT22;4247;48.550;8.822;2024-03-25T02:06:03;3.70;99.90
8420;DHT22;4247;48.550;8.822;2024-03-25T02:08:31;3.70;99.90
8420;DHT22;4247;48.550;8.822;2024-03-25T02:10:58;3.70;99.90
8420;DHT22;4247;48.550;8.822;2024-03-25T02:13:24;3.70;99.90
8420;DHT22;4247;48.550;8.822;2024-03-25T02:15:51;3.70;99.90
8420;DHT22;4247;48.550;8.822;2024-03-25T02:18:18;3.70;99.90
8420;DHT22;4247;48.550;8.822;2024-03-25T02:20:47;3.70;99.90
8420;DHT22;4247;48.550;8.822;2024-03-25T02:23:13;3.60;99.90
8420;DHT22;4247;48.550;8.822;2024-03-25T02:25:42;3.60;99.90
8420;DHT22;4247;48.550;8.822;2024-03-25T02:28:09;3.70;99.90
8420;DHT22;4247;48.550;8.822;2024-03-25T02:30:36;3.70;99.90
8420;DHT22;4247;48.550;8.822;2024-03-25T02:33:02;3.70;99.90
8420;DHT22;4247;48.550;8.822;2024-03-25T02:35:29;3.70;99.90
8420;DHT22;4247;48.550;8.822;2024-03-25T02:37:55;3.70;99.90
8420;DHT22;4247;48.550;8.822;2024-03-25T02:40:23;3.70;99.90
8420;DHT22;4247;48.550;8.822;2024-03-25T02:42:48;3.70;99.90
8420;DHT22;4247;48.550;8.822;2024-03-25T02:45:17;3.70;99.90
8420;DHT22;4247;48.550;8.822;2024-03-25T02:47:43;3.70;99.90
8420;DHT22;4247;48.550;8.822;2024-03-25T02:50:10;3.70;99.90
8420;DHT22;4247;48.550;8.822;2024-03-25T02:52:36;3.70;99.90
8420;DHT22;4247;48.550;8.822;2024-03-25T02:55:03;3.70;99.90
8420;DHT22;4247;48.550;8.822;2024-03-25T02:57:28;3.60;99.90
8420;DHT22;4247;48.550;8.822;2024-03-25T02:59:55;3.60;99.90
8420;DHT22;4247;48.550;8.822;2024-03-25T03:02:22;3.50;99.90
8420;DHT22;4247;48.550;8.822;2024-03-25T03:04:49;3.50;99.90
8420;DHT22;4247;48.550;8.822;2024-03-25T03:07:15;3.40;99.90
8420;DHT22;4247;48.550;8.822;2024-03-25T03:09:41;3.40;99.90
8420;DHT22;4247;48.550;8.822;2024-03-25T03:12:07;3.40;99.90
8420;DHT22;4247;48.550;8.822;2024-03-25T03:14:34;3.40;99.90
8420;DHT22;4247;48.550;8.822;2024-03-25T03:17:00;3.40;99.90
8420;DHT22;4247;48.550;8.822;2024-03-25T03:19:32;3.40;99.90
8420;DHT22;4247;48.550;8.822;2024-03-25T03:21:57;3.40;99.90
8420;DHT22;4247;48.550;8.822;2024-03-25T03:24:24;3.30;99.90
8420;DHT22;4247;48.550;8.822;2024-03-25T03:26:50;3.30;99.90
8420;DHT22;4247;48.550;8.822;2024-03-25T03:29:16;3.20;99.90
8420;DHT22;4247;48.550;8.822;2024-03-25T03:31:43;3.30;99.90
8420;DHT22;4247;48.550;8.822;2024-03-25T03:34:09;3.30;99.90
8420;DHT22;4247;48.550;8.822;2024-03-25T03:36:37;3.30;99.90
8420;DHT22;4247;48.550;8.822;2024-03-25T03:39:03;3.30;99.90
8420;DHT22;4247;48.550;8.822;2024-03-25T03:41:29;3.30;99.90
8420;DHT22;4247;48.550;8.822;2024-03-25T03:43:56;3.30;99.90
8420;DHT22;4247;48.550;8.822;2024-03-25T03:46:21;3.30;99.90
8420;DHT22;4247;48.550;8.822;2024-03-25T03:48:48;3.30;99.90
8420;DHT22;4247;48.550;8.822;2024-03-25T03:51:14;3.20;99.90
8420;DHT22;4247;48.550;8.822;2024-03-25T03:53:42;3.20;99.90
8420;DHT22;4247;48.550;8.822;2024-03-25T03:56:07;3.20;99.90
8420;DHT22;4247;48.550;8.822;2024-03-25T03:58:34;3.20;99.90
8420;DHT22;4247;48.550;8.822;2024-03-25T04:01:01;3.10;99.90
8420;DHT22;4247;48.550;8.822;2024-03-25T04:03:29;3.20;99.90
8420;DHT22;4247;48.550;8.822;2024-03-25T04:05:55;3.10;99.90
8420;DHT22;4247;48.550;8.822;2024-03-25T04:08:22;3.10;99.90
8420;DHT22;4247;48.550;8.822;2024-03-25T04:10:49;3.10;99.90
8420;DHT22;4247;48.550;8.822;2024-03-25T04:13:15;3.10;99.90
8420;DHT22;4247;48.550;8.822;2024-03-25T04:15:43;3.10;99.90
8420;DHT22;4247;48.550;8.822;2024-03-25T04:18:10;3.10;99.90
8420;DHT22;4247;48.550;8.822;2024-03-25T04:20:37;3.10;99.90
8420;DHT22;4247;48.550;8.822;2024-03-25T04:23:04;3.10;99.90
8420;DHT22;4247;48.550;8.822;2024-03-25T04:25:30;3.10;99.90
8420;DHT22;4247;48.550;8.822;2024-03-25T04:27:59;3.00;99.90
8420;DHT22;4247;48.550;8.822;2024-03-25T04:30:26;3.00;99.90
8420;DHT22;4247;48.550;8.822;2024-03-25T04:32:53;3.00;99.90
8420;DHT22;4247;48.550;8.822;2024-03-25T04:35:18;3.00;99.90
8420;DHT22;4247;48.550;8.822;2024-03-25T04:37:45;3.00;99.90
8420;DHT22;4247;48.550;8.822;2024-03-25T04:40:12;3.00;99.90
8420;DHT22;4247;48.550;8.822;2024-03-25T04:42:38;3.00;99.90
8420;DHT22;4247;48.550;8.822;2024-03-25T04:45:06;3.00;99.90
8420;DHT22;4247;48.550;8.822;2024-03-25T04:47:31;3.00;99.90
8420;DHT22;4247;48.550;8.822;2024-03-25T04:49:57;3.00;99.90
8420;DHT22;4247;48.550;8.822;2024-03-25T04:52:23;3.00;99.90
8420;DHT22;4247;48.550;8.822;2024-03-25T04:54:49;3.00;99.90
8420;DHT22;4247;48.550;8.822;2024-03-25T04:57:15;3.00;99.90
8420;DHT22;4247;48.550;8.822;2024-03-25T04:59:41;3.00;99.90
8420;DHT22;4247;48.550;8.822;2024-03-25T05:02:08;3.10;99.90
8420;DHT22;4247;48.550;8.822;2024-03-25T05:04:34;3.00;99.90
8420;DHT22;4247;48.550;8.822;2024-03-25T05:06:59;3.10;99.90
8420;DHT22;4247;48.550;8.822;2024-03-25T05:09:25;3.10;99.90
8420;DHT22;4247;48.550;8.822;2024-03-25T05:11:51;3.10;99.90
8420;DHT22;4247;48.550;8.822;2024-03-25T05:14:17;3.10;99.90
8420;DHT22;4247;48.550;8.822;2024-03-25T05:16:43;3.10;99.90
8420;DHT22;4247;48.550;8.822;2024-03-25T05:19:10;3.10;99.90
8420;DHT22;4247;48.550;8.822;2024-03-25T05:21:36;3.20;99.90
8420;DHT22;4247;48.550;8.822;2024-03-25T05:24:01;3.10;99.90
8420;DHT22;4247;48.550;8.822;2024-03-25T05:26:27;3.20;99.90
8420;DHT22;4247;48.550;8.822;2024-03-25T05:28:53;3.20;99.90
8420;DHT22;4247;48.550;8.822;2024-03-25T05:31:19;3.20;99.90
8420;DHT22;4247;48.550;8.822;2024-03-25T05:33:45;3.20;99.90
8420;DHT22;4247;48.550;8.822;2024-03-25T05:36:12;3.30;99.90
8420;DHT22;4247;48.550;8.822;2024-03-25T05:38:38;3.40;99.90
8420;DHT22;4247;48.550;8.822;2024-03-25T05:41:04;3.40;99.90
8420;DHT22;4247;48.550;8.822;2024-03-25T05:43:30;3.40;99.90
8420;DHT22;4247;48.550;8.822;2024-03-25T05:45:56;3.40;99.90
8420;DHT22;4247;48.550;8.822;2024-03-25T05:48:24;3.40;99.90
8420;DHT22;4247;48.550;8.822;2024-03-25T05:50:58;3.40;99.90
8420;DHT22;4247;48.550;8.822;2024-03-25T05:53:25;3.40;99.90
8420;DHT22;4247;48.550;8.822;2024-03-25T05:55:51;3.40;99.90
8420;DHT22;4247;48.550;8.822;2024-03-25T05:58:17;3.50;99.90
8420;DHT22;4247;48.550;8.822;2024-03-25T06:00:42;3.50;99.90
8420;DHT22;4247;48.550;8.822;2024-03-25T06:03:08;3.50;99.90
8420;DHT22;4247;48.550;8.822;2024-03-25T06:05:34;3.60;99.90
8420;DHT22;4247;48.550;8.822;2024-03-25T06:08:00;3.60;99.90
8420;DHT22;4247;48.550;8.822;2024-03-25T06:10:27;3.60;99.90
8420;DHT22;4247;48.550;8.822;2024-03-25T06:12:53;3.60;99.90
8420;DHT22;4247;48.550;8.822;2024-03-25T06:15:18;3.70;99.90
8420;DHT22;4247;48.550;8.822;2024-03-25T06:17:44;3.70;99.90
8420;DHT22;4247;48.550;8.822;2024-03-25T06:20:11;3.80;99.90
8420;DHT22;4247;48.550;8.822;2024-03-25T06:22:36;3.90;99.90
8420;DHT22;4247;48.550;8.822;2024-03-25T06:25:02;3.90;99.90
8420;DHT22;4247;48.550;8.822;2024-03-25T06:27:29;3.90;99.90
8420;DHT22;4247;48.550;8.822;2024-03-25T06:29:55;4.00;99.90
8420;DHT22;4247;48.550;8.822;2024-03-25T06:32:21;4.10;99.90
8420;DHT22;4247;48.550;8.822;2024-03-25T06:35:06;4.20;99.90
8420;DHT22;4247;48.550;8.822;2024-03-25T06:37:32;4.20;99.90
8420;DHT22;4247;48.550;8.822;2024-03-25T06:39:57;4.30;99.90
8420;DHT22;4247;48.550;8.822;2024-03-25T06:42:23;4.40;99.90
8420;DHT22;4247;48.550;8.822;2024-03-25T06:44:50;4.40;99.90
8420;DHT22;4247;48.550;8.822;2024-03-25T06:47:16;4.40;99.90
8420;DHT22;4247;48.550;8.822;2024-03-25T06:49:42;4.50;99.90
8420;DHT22;4247;48.550;8.822;2024-03-25T06:52:07;4.50;99.90
8420;DHT22;4247;48.550;8.822;2024-03-25T06:54:34;4.60;99.90
8420;DHT22;4247;48.550;8.822;2024-03-25T06:57:00;4.70;99.90
8420;DHT22;4247;48.550;8.822;2024-03-25T06:59:25;4.70;99.90
8420;DHT22;4247;48.550;8.822;2024-03-25T07:01:52;4.80;99.90
8420;DHT22;4247;48.550;8.822;2024-03-25T07:04:18;4.80;99.90
8420;DHT22;4247;48.550;8.822;2024-03-25T07:06:44;4.80;99.90
8420;DHT22;4247;48.550;8.822;2024-03-25T07:09:10;4.90;99.90
8420;DHT22;4247;48.550;8.822;2024-03-25T07:11:35;4.90;99.90
8420;DHT22;4247;48.550;8.822;2024-03-25T07:14:01;5.00;99.90
8420;DHT22;4247;48.550;8.822;2024-03-25T07:16:27;5.00;99.90
8420;DHT22;4247;48.550;8.822;2024-03-25T07:18:54;5.00;99.90
8420;DHT22;4247;48.550;8.822;2024-03-25T07:21:20;5.00;99.90
8420;DHT22;4247;48.550;8.822;2024-03-25T07:23:46;5.00;99.90
8420;DHT22;4247;48.550;8.822;2024-03-25T07:26:11;5.00;99.90
8420;DHT22;4247;48.550;8.822;2024-03-25T07:28:37;5.20;99.90
8420;DHT22;4247;48.550;8.822;2024-03-25T07:31:03;5.20;99.90
8420;DHT22;4247;48.550;8.822;2024-03-25T07:33:29;5.30;99.90
8420;DHT22;4247;48.550;8.822;2024-03-25T07:35:56;5.40;99.90
8420;DHT22;4247;48.550;8.822;2024-03-25T07:38:21;5.50;99.90
8420;DHT22;4247;48.550;8.822;2024-03-25T07:40:47;5.60;99.90
8420;DHT22;4247;48.550;8.822;2024-03-25T07:43:13;5.60;99.90
8420;DHT22;4247;48.550;8.822;2024-03-25T07:45:39;5.80;99.90
8420;DHT22;4247;48.550;8.822;2024-03-25T07:48:05;5.80;99.90
8420;DHT22;4247;48.550;8.822;2024-03-25T07:50:31;5.90;99.90
8420;DHT22;4247;48.550;8.822;2024-03-25T07:52:58;6.00;99.90
8420;DHT22;4247;48.550;8.822;2024-03-25T07:55:24;6.00;99.90
8420;DHT22;4247;48.550;8.822;2024-03-25T07:57:50;6.10;99.90
8420;DHT22;4247;48.550;8.822;2024-03-25T08:00:16;6.30;99.90
8420;DHT22;4247;48.550;8.822;2024-03-25T08:02:42;6.50;99.90
8420;DHT22;4247;48.550;8.822;2024-03-25T08:05:08;6.70;99.90
8420;DHT22;4247;48.550;8.822;2024-03-25T08:07:34;6.90;99.90
8420;DHT22;4247;48.550;8.822;2024-03-25T08:10:01;6.90;99.90
8420;DHT22;4247;48.550;8.822;2024-03-25T08:12:28;7.10;99.90
8420;DHT22;4247;48.550;8.822;2024-03-25T08:14:53;7.20;99.90
8420;DHT22;4247;48.550;8.822;2024-03-25T08:17:19;7.20;99.90
8420;DHT22;4247;48.550;8.822;2024-03-25T08:19:45;7.20;99.90
8420;DHT22;4247;48.550;8.822;2024-03-25T08:22:11;7.20;99.90
8420;DHT22;4247;48.550;8.822;2024-03-25T08:24:37;7.30;99.90
8420;DHT22;4247;48.550;8.822;2024-03-25T08:27:04;7.30;99.90
8420;DHT22;4247;48.550;8.822;2024-03-25T08:29:30;7.20;99.90
8420;DHT22;4247;48.550;8.822;2024-03-25T08:31:56;7.30;99.90
8420;DHT22;4247;48.550;8.822;2024-03-25T08:34:22;7.40;99.90
8420;DHT22;4247;48.550;8.822;2024-03-25T08:36:48;7.40;99.90
8420;DHT22;4247;48.550;8.822;2024-03-25T08:39:14;7.50;99.90
8420;DHT22;4247;48.550;8.822;2024-03-25T08:41:39;7.50;99.90
8420;DHT22;4247;48.550;8.822;2024-03-25T08:44:07;7.60;99.90
8420;DHT22;4247;48.550;8.822;2024-03-25T08:46:33;7.70;99.90
8420;DHT22;4247;48.550;8.822;2024-03-25T08:48:59;7.70;99.90
8420;DHT22;4247;48.550;8.822;2024-03-25T08:51:24;7.80;99.90
8420;DHT22;4247;48.550;8.822;2024-03-25T08:53:50;7.90;99.90
8420;DHT22;4247;48.550;8.822;2024-03-25T08:56:16;7.90;99.90
8420;DHT22;4247;48.550;8.822;2024-03-25T08:58:42;7.90;99.90
8420;DHT22;4247;48.550;8.822;2024-03-25T09:01:09;7.90;99.90
8420;DHT22;4247;48.550;8.822;2024-03-25T09:03:35;8.00;99.90
8420;DHT22;4247;48.550;8.822;2024-03-25T09:06:01;8.00;99.90
8420;DHT22;4247;48.550;8.822;2024-03-25T09:08:27;8.10;99.90
8420;DHT22;4247;48.550;8.822;2024-03-25T09:10:53;8.10;99.90
8420;DHT22;4247;48.550;8.822;2024-03-25T09:13:28;8.20;99.90
8420;DHT22;4247;48.550;8.822;2024-03-25T09:15:54;8.30;99.90
8420;DHT22;4247;48.550;8.822;2024-03-25T09:18:21;8.40;99.90
8420;DHT22;4247;48.550;8.822;2024-03-25T09:20:47;8.30;99.90
8420;DHT22;4247;48.550;8.822;2024-03-25T09:23:13;8.20;99.90
8420;DHT22;4247;48.550;8.822;2024-03-25T09:25:39;8.30;99.90
8420;DHT22;4247;48.550;8.822;2024-03-25T09:28:05;8.30;99.90
8420;DHT22;4247;48.550;8.822;2024-03-25T09:30:31;8.40;99.90
8420;DHT22;4247;48.550;8.822;2024-03-25T09:32:57;8.50;99.90
8420;DHT22;4247;48.550;8.822;2024-03-25T09:35:24;8.50;99.90
8420;DHT22;4247;48.550;8.822;2024-03-25T09:37:50;8.60;99.90
8420;DHT22;4247;48.550;8.822;2024-03-25T09:40:16;8.70;99.90
8420;DHT22;4247;48.550;8.822;2024-03-25T09:42:47;8.80;99.90
8420;DHT22;4247;48.550;8.822;2024-03-25T09:45:16;8.80;99.90
8420;DHT22;4247;48.550;8.822;2024-03-25T09:47:44;8.80;99.90
8420;DHT22;4247;48.550;8.822;2024-03-25T09:50:12;8.80;99.90
8420;DHT22;4247;48.550;8.822;2024-03-25T09:52:40;9.00;99.90
8420;DHT22;4247;48.550;8.822;2024-03-25T09:55:07;9.00;99.90
8420;DHT22;4247;48.550;8.822;2024-03-25T09:57:34;9.00;99.90
8420;DHT22;4247;48.550;8.822;2024-03-25T10:00:00;9.10;99.90
8420;DHT22;4247;48.550;8.822;2024-03-25T10:02:28;9.10;99.90
8420;DHT22;4247;48.550;8.822;2024-03-25T10:04:55;9.00;99.90
8420;DHT22;4247;48.550;8.822;2024-03-25T10:07:24;9.00;99.90
8420;DHT22;4247;48.550;8.822;2024-03-25T10:09:52;8.90;99.90
8420;DHT22;4247;48.550;8.822;2024-03-25T10:12:18;8.90;99.90
8420;DHT22;4247;48.550;8.822;2024-03-25T10:14:44;8.90;99.90
8420;DHT22;4247;48.550;8.822;2024-03-25T10:17:10;8.90;99.90
8420;DHT22;4247;48.550;8.822;2024-03-25T10:19:36;8.90;99.90
8420;DHT22;4247;48.550;8.822;2024-03-25T10:22:06;8.90;99.90
8420;DHT22;4247;48.550;8.822;2024-03-25T10:24:39;8.80;98.40
8420;DHT22;4247;48.550;8.822;2024-03-25T10:27:10;8.80;95.80
8420;DHT22;4247;48.550;8.822;2024-03-25T10:29:36;8.70;94.60
8420;DHT22;4247;48.550;8.822;2024-03-25T10:32:02;8.70;94.80
8420;DHT22;4247;48.550;8.822;2024-03-25T10:34:28;8.70;96.00
8420;DHT22;4247;48.550;8.822;2024-03-25T10:36:57;8.60;97.70
8420;DHT22;4247;48.550;8.822;2024-03-25T10:39:26;8.70;97.90
8420;DHT22;4247;48.550;8.822;2024-03-25T10:41:55;8.70;95.80
8420;DHT22;4247;48.550;8.822;2024-03-25T10:44:24;8.70;94.60
8420;DHT22;4247;48.550;8.822;2024-03-25T10:46:55;8.60;94.80
8420;DHT22;4247;48.550;8.822;2024-03-25T10:49:32;8.60;94.80
8420;DHT22;4247;48.550;8.822;2024-03-25T10:52:00;8.60;93.80
8420;DHT22;4247;48.550;8.822;2024-03-25T10:54:26;8.50;93.90
8420;DHT22;4247;48.550;8.822;2024-03-25T10:56:55;8.50;93.40
8420;DHT22;4247;48.550;8.822;2024-03-25T10:59:23;8.50;93.60
8420;DHT22;4247;48.550;8.822;2024-03-25T11:01:49;8.50;95.10
8420;DHT22;4247;48.550;8.822;2024-03-25T11:04:16;8.60;95.60
8420;DHT22;4247;48.550;8.822;2024-03-25T11:06:42;8.60;95.30
8420;DHT22;4247;48.550;8.822;2024-03-25T11:09:07;8.60;94.50
8420;DHT22;4247;48.550;8.822;2024-03-25T11:11:33;8.60;94.50
8420;DHT22;4247;48.550;8.822;2024-03-25T11:14:02;8.70;95.80
8420;DHT22;4247;48.550;8.822;2024-03-25T11:16:30;8.70;94.90
8420;DHT22;4247;48.550;8.822;2024-03-25T11:19:01;8.70;94.60
8420;DHT22;4247;48.550;8.822;2024-03-25T11:21:27;8.70;93.90
8420;DHT22;4247;48.550;8.822;2024-03-25T11:23:54;8.80;96.10
8420;DHT22;4247;48.550;8.822;2024-03-25T11:26:21;8.80;95.50
8420;DHT22;4247;48.550;8.822;2024-03-25T11:28:47;8.70;94.20
8420;DHT22;4247;48.550;8.822;2024-03-25T11:31:13;8.70;94.70
8420;DHT22;4247;48.550;8.822;2024-03-25T11:33:41;8.70;95.30
8420;DHT22;4247;48.550;8.822;2024-03-25T11:36:08;8.60;93.40
8420;DHT22;4247;48.550;8.822;2024-03-25T11:38:35;8.60;95.30
8420;DHT22;4247;48.550;8.822;2024-03-25T11:41:01;8.60;93.70
8420;DHT22;4247;48.550;8.822;2024-03-25T11:43:27;8.70;92.30
8420;DHT22;4247;48.550;8.822;2024-03-25T11:45:53;8.70;92.20
8420;DHT22;4247;48.550;8.822;2024-03-25T11:48:19;8.70;91.80
8420;DHT22;4247;48.550;8.822;2024-03-25T11:50:47;8.70;92.10
8420;DHT22;4247;48.550;8.822;2024-03-25T11:53:13;8.70;93.60
8420;DHT22;4247;48.550;8.822;2024-03-25T11:55:39;8.70;92.00
8420;DHT22;4247;48.550;8.822;2024-03-25T11:58:06;8.70;92.80
8420;DHT22;4247;48.550;8.822;2024-03-25T12:00:32;8.70;92.50
8420;DHT22;4247;48.550;8.822;2024-03-25T12:02:57;8.70;93.20
8420;DHT22;4247;48.550;8.822;2024-03-25T12:05:23;8.80;92.30
8420;DHT22;4247;48.550;8.822;2024-03-25T12:07:51;8.90;92.80
8420;DHT22;4247;48.550;8.822;2024-03-25T12:10:17;8.90;92.70
8420;DHT22;4247;48.550;8.822;2024-03-25T12:13:01;8.80;92.30
8420;DHT22;4247;48.550;8.822;2024-03-25T12:15:27;8.70;93.50
8420;DHT22;4247;48.550;8.822;2024-03-25T12:17:53;8.80;93.10
8420;DHT22;4247;48.550;8.822;2024-03-25T12:20:20;8.80;91.70
8420;DHT22;4247;48.550;8.822;2024-03-25T12:22:46;8.80;91.70
8420;DHT22;4247;48.550;8.822;2024-03-25T12:25:15;8.80;93.40
8420;DHT22;4247;48.550;8.822;2024-03-25T12:27:41;8.80;92.60
8420;DHT22;4247;48.550;8.822;2024-03-25T12:30:11;8.80;93.00
8420;DHT22;4247;48.550;8.822;2024-03-25T12:32:38;8.90;93.00
8420;DHT22;4247;48.550;8.822;2024-03-25T12:35:07;8.90;92.50
8420;DHT22;4247;48.550;8.822;2024-03-25T12:37:33;8.90;90.30
8420;DHT22;4247;48.550;8.822;2024-03-25T12:39:59;8.90;91.60
8420;DHT22;4247;48.550;8.822;2024-03-25T12:42:27;8.80;91.40
8420;DHT22;4247;48.550;8.822;2024-03-25T12:44:53;8.90;89.70
8420;DHT22;4247;48.550;8.822;2024-03-25T12:47:19;8.90;90.10
8420;DHT22;4247;48.550;8.822;2024-03-25T12:49:45;8.80;90.80
8420;DHT22;4247;48.550;8.822;2024-03-25T12:52:11;8.90;92.30
8420;DHT22;4247;48.550;8.822;2024-03-25T12:54:37;8.90;91.20
8420;DHT22;4247;48.550;8.822;2024-03-25T12:57:04;8.90;91.40
8420;DHT22;4247;48.550;8.822;2024-03-25T12:59:31;9.00;92.40
8420;DHT22;4247;48.550;8.822;2024-03-25T13:01:57;9.00;92.40
8420;DHT22;4247;48.550;8.822;2024-03-25T13:04:23;9.00;92.40
8420;DHT22;4247;48.550;8.822;2024-03-25T13:06:49;9.00;91.80
8420;DHT22;4247;48.550;8.822;2024-03-25T13:09:15;8.90;91.40
8420;DHT22;4247;48.550;8.822;2024-03-25T13:11:41;9.00;91.30
8420;DHT22;4247;48.550;8.822;2024-03-25T13:14:06;8.90;89.60
8420;DHT22;4247;48.550;8.822;2024-03-25T13:16:34;8.90;91.80
8420;DHT22;4247;48.550;8.822;2024-03-25T13:19:00;8.90;91.30
8420;DHT22;4247;48.550;8.822;2024-03-25T13:21:26;9.00;91.60
8420;DHT22;4247;48.550;8.822;2024-03-25T13:23:52;9.00;91.30
8420;DHT22;4247;48.550;8.822;2024-03-25T13:26:18;8.90;91.10
8420;DHT22;4247;48.550;8.822;2024-03-25T13:28:44;9.00;90.20
8420;DHT22;4247;48.550;8.822;2024-03-25T13:31:10;9.00;91.10
8420;DHT22;4247;48.550;8.822;2024-03-25T13:33:38;9.00;91.30
8420;DHT22;4247;48.550;8.822;2024-03-25T13:36:05;9.00;91.40
8420;DHT22;4247;48.550;8.822;2024-03-25T13:38:31;9.00;91.20
8420;DHT22;4247;48.550;8.822;2024-03-25T13:40:57;9.00;92.60
8420;DHT22;4247;48.550;8.822;2024-03-25T13:43:23;9.10;90.30
8420;DHT22;4247;48.550;8.822;2024-03-25T13:45:49;9.10;90.20
8420;DHT22;4247;48.550;8.822;2024-03-25T13:48:15;9.00;89.40
8420;DHT22;4247;48.550;8.822;2024-03-25T13:50:43;9.00;90.90
8420;DHT22;4247;48.550;8.822;2024-03-25T13:53:09;9.10;90.50
8420;DHT22;4247;48.550;8.822;2024-03-25T13:55:35;9.20;90.30
8420;DHT22;4247;48.550;8.822;2024-03-25T13:58:01;9.30;90.50
8420;DHT22;4247;48.550;8.822;2024-03-25T14:00:28;9.30;91.50
8420;DHT22;4247;48.550;8.822;2024-03-25T14:02:54;9.30;89.90
8420;DHT22;4247;48.550;8.822;2024-03-25T14:05:20;9.40;90.50
8420;DHT22;4247;48.550;8.822;2024-03-25T14:07:47;9.40;90.70
8420;DHT22;4247;48.550;8.822;2024-03-25T14:10:13;9.40;90.60
8420;DHT22;4247;48.550;8.822;2024-03-25T14:12:39;9.50;91.90
8420;DHT22;4247;48.550;8.822;2024-03-25T14:15:06;9.50;89.90
8420;DHT22;4247;48.550;8.822;2024-03-25T14:17:32;9.50;89.20
8420;DHT22;4247;48.550;8.822;2024-03-25T14:19:58;9.50;90.60
8420;DHT22;4247;48.550;8.822;2024-03-25T14:22:24;9.50;90.80
8420;DHT22;4247;48.550;8.822;2024-03-25T14:24:52;9.60;91.20
8420;DHT22;4247;48.550;8.822;2024-03-25T14:27:18;9.60;89.50
8420;DHT22;4247;48.550;8.822;2024-03-25T14:29:44;9.70;89.70
8420;DHT22;4247;48.550;8.822;2024-03-25T14:32:09;9.70;89.30
8420;DHT22;4247;48.550;8.822;2024-03-25T14:34:35;9.70;89.20
8420;DHT22;4247;48.550;8.822;2024-03-25T14:37:01;9.70;89.30
8420;DHT22;4247;48.550;8.822;2024-03-25T14:39:27;9.70;85.90
8420;DHT22;4247;48.550;8.822;2024-03-25T14:41:54;9.70;86.40
8420;DHT22;4247;48.550;8.822;2024-03-25T14:44:20;9.70;88.60
8420;DHT22;4247;48.550;8.822;2024-03-25T14:46:46;9.70;86.70
8420;DHT22;4247;48.550;8.822;2024-03-25T14:49:12;9.80;88.70
8420;DHT22;4247;48.550;8.822;2024-03-25T14:51:38;9.80;89.00
8420;DHT22;4247;48.550;8.822;2024-03-25T14:54:05;9.80;89.50
8420;DHT22;4247;48.550;8.822;2024-03-25T14:56:31;9.80;89.50
8420;DHT22;4247;48.550;8.822;2024-03-25T14:58:58;9.80;88.40
8420;DHT22;4247;48.550;8.822;2024-03-25T15:01:24;9.90;86.60
8420;DHT22;4247;48.550;8.822;2024-03-25T15:03:50;9.90;87.00
8420;DHT22;4247;48.550;8.822;2024-03-25T15:06:16;9.90;86.10
8420;DHT22;4247;48.550;8.822;2024-03-25T15:08:42;9.90;86.70
8420;DHT22;4247;48.550;8.822;2024-03-25T15:11:09;9.90;88.30
8420;DHT22;4247;48.550;8.822;2024-03-25T15:13:35;9.90;87.30
8420;DHT22;4247;48.550;8.822;2024-03-25T15:16:05;9.90;90.50
8420;DHT22;4247;48.550;8.822;2024-03-25T15:18:31;10.00;89.30
8420;DHT22;4247;48.550;8.822;2024-03-25T15:21:01;10.00;86.50
8420;DHT22;4247;48.550;8.822;2024-03-25T15:23:27;10.00;86.80
8420;DHT22;4247;48.550;8.822;2024-03-25T15:25:53;10.00;88.40
8420;DHT22;4247;48.550;8.822;2024-03-25T15:28:19;10.00;88.40
8420;DHT22;4247;48.550;8.822;2024-03-25T15:30:46;10.00;86.50
8420;DHT22;4247;48.550;8.822;2024-03-25T15:33:13;10.00;85.70
8420;DHT22;4247;48.550;8.822;2024-03-25T15:35:39;10.00;86.30
8420;DHT22;4247;48.550;8.822;2024-03-25T15:38:05;10.00;87.60
8420;DHT22;4247;48.550;8.822;2024-03-25T15:40:31;10.00;90.10
8420;DHT22;4247;48.550;8.822;2024-03-25T15:42:57;10.00;86.70
8420;DHT22;4247;48.550;8.822;2024-03-25T15:45:23;10.00;87.00
8420;DHT22;4247;48.550;8.822;2024-03-25T15:47:50;10.00;87.60
8420;DHT22;4247;48.550;8.822;2024-03-25T15:50:17;10.00;87.60
8420;DHT22;4247;48.550;8.822;2024-03-25T15:52:43;10.00;88.40
8420;DHT22;4247;48.550;8.822;2024-03-25T15:55:09;10.00;86.70
8420;DHT22;4247;48.550;8.822;2024-03-25T15:57:35;10.00;86.90
8420;DHT22;4247;48.550;8.822;2024-03-25T16:00:01;9.90;88.10
8420;DHT22;4247;48.550;8.822;2024-03-25T16:02:28;9.90;88.40
8420;DHT22;4247;48.550;8.822;2024-03-25T16:04:54;9.90;88.20
8420;DHT22;4247;48.550;8.822;2024-03-25T16:07:21;9.90;89.00
8420;DHT22;4247;48.550;8.822;2024-03-25T16:09:47;9.80;88.00
8420;DHT22;4247;48.550;8.822;2024-03-25T16:12:13;9.80;88.40